This is the latest recevied weather packets stored in our database for station/object OM6ACB-6. If no packets are shown the sender has not sent any weather packets the latest 10 day(s).
| Time | Temp. | Humidity | Pressure | Rain* | Wind** | Luminosity | Snow |
|---|---|---|---|---|---|---|---|
| 1788534333 | 23.89° C | 21% | 1019.8 hPa | 0 mm | - | - | - |
| 1788533752 | 23.89° C | 20% | 1019.9 hPa | 0 mm | - | - | - |
| 1788533132 | 26.11° C | 20% | 1020.2 hPa | 0 mm | - | - | - |
| 1788532532 | 25° C | 20% | 1020.3 hPa | 0 mm | - | - | - |
| 1788531932 | 25.56° C | 20% | 1020.4 hPa | 0 mm | - | - | - |
| 1788531332 | 26.11° C | 20% | 1020.4 hPa | 0 mm | - | - | - |
| 1788530731 | 27.22° C | 20% | 1020.7 hPa | 0 mm | - | - | - |
| 1788530131 | 27.22° C | 20% | 1020.7 hPa | 0 mm | - | - | - |
| 1788529531 | 26.11° C | 20% | 1020.8 hPa | 0 mm | - | - | - |
| 1788528930 | 26.67° C | 20% | 1020.9 hPa | 0 mm | - | - | - |
| 1788528330 | 25.56° C | 20% | 1021 hPa | 0 mm | - | - | - |
| 1788527753 | 26.67° C | 20% | 1021.2 hPa | 0 mm | - | - | - |
| 1788527130 | 26.67° C | 20% | 1021.3 hPa | 0 mm | - | - | - |
| 1788526529 | 27.22° C | 20% | 1021.4 hPa | 0 mm | - | - | - |
| 1788525929 | 25° C | 20% | 1021.3 hPa | 0 mm | - | - | - |
| 1788525329 | 26.11° C | 20% | 1021.6 hPa | 0 mm | - | - | - |
| 1788524729 | 25° C | 20% | 1021.5 hPa | 0 mm | - | - | - |
| 1788524128 | 27.22° C | 20% | 1022 hPa | 0 mm | - | - | - |
| 1788523528 | 26.67° C | 20% | 1022 hPa | 0 mm | - | - | - |
| 1788522928 | 27.22° C | 20% | 1022.3 hPa | 0 mm | - | - | - |
| 1788522327 | 27.22° C | 20% | 1022.5 hPa | 0 mm | - | - | - |
| 1788521727 | 27.78° C | 20% | 1022.6 hPa | 0 mm | - | - | - |
| 1788521127 | 28.33° C | 20% | 1022.9 hPa | 0 mm | - | - | - |
| 1788520526 | 25° C | 20% | 1022.6 hPa | 0 mm | - | - | - |
| 1788519926 | 27.22° C | 20% | 1022.7 hPa | 0 mm | - | - | - |
* Rain latest hour (hover to see other rain measurements)
** Current wind speed in m/s (hover to see current wind gust speed)